Etusivu
METAR-TAF:

METAR-TAF

Lentoasemat :

Norne Fpso, Norja

Öljynporauslautta

Leveyspiiri: 66-01-48N, Pituuspiiri: 008-04-48E, korkeus merenpinnasta: 10 m

Tämänhetkinen sää

Tämä raportti tehtiin 24 minuuttia sitten, kello 23.50 UTC
Tuuli 3 kn pohjoisen/luoteesta
Lämpötila 10°C
Kosteus 82%
Ilmanpaine 1014 hPa
Näkyvyys 10 km tai enemmän

METAR: ENNE 282350Z AUTO 34003KT 9999NDV BKN015/// BKN025/// BKN046/// 10/07 Q1014 W///S/

Aika: 02:14 (00:14 UTC)

Sääennuste

Tämä raportti tehtiin 13 tuntia ja 14 minuuttia sitten, kello 11.00 UTC
Ennuste voimassa 28. päivästä klo 12 UTC - 28. päivään klo 17 UTC
Tuuli 12 kn lännestä/luoteesta
Näkyvyys 10 km tai enemmän
Muutamia pilviä 2000 ft:n korkeudessa, Kasvava cumulus-pilvi.
Hajanaisia pilviä 4000 ft:n korkeudessa

TAF: ENNE 281100Z 2812/2817 29012KT 9999 FEW020TCU SCT040

Säähavainnot ja -ennusteet yli 4000 lentoasemalta (METAR- ja TAF-raportit).

Käytössä olevat sääasemat on merkitty karttaan keltaisilla ja punaisilla pisteillä.

Aseta hiiri pisteen päälle nähdäksesi sääaseman nimen.

Klikkaa sitten nähdäksesi säähavainnot ja -ennusteet.

Kartan vaihtaminen: klikkaa mustalla rastilla varustettuja vihreitä pisteitä, niin voit zoomata sisään; viivalla varustettua vihreää pistettä, niin voit zoomata ulos tai vihreitä nuolia, niin pääset viereisille kartoille.


METAR-TAF: